Arkabutla, MS

1:19 PM CDT on September 17, 2014 (GMT -0500)
Oak Manor S/D | Change Station
CLOSE
Current Station
Personal Weather Station
Location: Hernando, MS
Elevation: 259 ft
Nearby Weather Stations

Elev 259 ft 34.82 °N, 90.04 °W | Updated 9 seconds ago

Partly Cloudy
Partly Cloudy
76.7 °F
Feels Like 78 °F
N
1.0
Wind Variable Wind from SE
Gusts 7.0 mph

Today
High -- | Low -- °F
--% Chance of Precip.
Yesterday
High -- | Low -- °F
Precip. -- in
6:44 AM 7:03 PM
Waning Crescent, 34% visible
Pressure 30.01 in
Visibility 10.0 miles
Clouds Clear
Heat Index 78 °F
Dew Point 67 °F
Humidity 73%
Rainfall 0.00 in
Snow Depth Not available.
UV 9 out of 12
Pollen 8.50 out of 12
Air Quality Not available.
Flu Activity Not available.
METAR KUTA 171735Z AUTO 00000KT 10SM CLR 24/17 A3001 RMK AO2

More Conditions Fewer Conditions

Pressure 30.01 in
Visibility 10.0 miles
Clouds Clear
Heat Index 78 °F
Dew Point 67 °F
Humidity 73%
Rainfall 0.00 in
Snow Depth Not available.
UV 9 out of 12
Pollen 8.50 out of 12
Air Quality Not available.
Flu Activity Not available.
METAR KUTA 171735Z AUTO 00000KT 10SM CLR 24/17 A3001 RMK AO2

More Conditions Fewer Conditions

10-Day Weather Forecast

Almanac

Astronomy

Sep. 17, 2014 Rise Set
Actual Time 6:44 AM CDT 7:03 PM CDT
Civil Twilight 6:19 AM CDT 7:29 PM CDT
Nautical Twilight 5:49 AM CDT 7:58 PM CDT
Astronomical Twilight 5:19 AM CDT 8:28 PM CDT
Moon 12:54 AM CDT 3:03 PM CDT
Length of Visible Light 13h 09m
Length of Day
12h 19m
Tomorrow will be 2m 9s shorter.
Waning Crescent, 34% of the Moon is Illuminated
Today
Waning Crescent
Sep 24
New
Oct 1
First Quarter
Oct 8
Full
Oct 15
Last Quarter

Today's Extremes

State Highs State Lows

Community

WunderPhotos

Upload Photos

1,754,122 photos uploaded!

WunderBlogs® & News

Nearby

Snow Depth

Station Depth Elevation
No new snow has been reported.

Earthquake Activity

City Distance Mag. Time & Date
No recent earthquake activity has been reported nearby.
Minimum magnitude displayed is 2.5.

Coastal Water Temperatures

Place Temperature
No Stations Reporting

Nearby Weather Stations